sensor_id;sensor_type;location;lat;lon;timestamp;temperature;humidity
12043;DHT22;6082;49.306;12.862;2022-07-29T08:52:33;17.70;99.90
12043;DHT22;6082;49.306;12.862;2022-07-29T08:55:00;17.90;99.90
12043;DHT22;6082;49.306;12.862;2022-07-29T08:57:25;18.00;99.90
12043;DHT22;6082;49.306;12.862;2022-07-29T08:59:52;18.00;99.90
12043;DHT22;6082;49.306;12.862;2022-07-29T09:02:21;18.10;99.90
12043;DHT22;6082;49.306;12.862;2022-07-29T09:04:48;18.10;99.90
12043;DHT22;6082;49.306;12.862;2022-07-29T09:07:18;18.10;99.90
12043;DHT22;6082;49.306;12.862;2022-07-29T09:09:44;18.20;99.90
12043;DHT22;6082;49.306;12.862;2022-07-29T09:12:10;18.10;99.90
12043;DHT22;6082;49.306;12.862;2022-07-29T09:14:40;18.10;99.90
12043;DHT22;6082;49.306;12.862;2022-07-29T09:17:06;18.00;99.90
12043;DHT22;6082;49.306;12.862;2022-07-29T09:19:37;18.00;99.90
12043;DHT22;6082;49.306;12.862;2022-07-29T09:22:07;18.00;99.90
12043;DHT22;6082;49.306;12.862;2022-07-29T09:24:41;18.00;99.90
12043;DHT22;6082;49.306;12.862;2022-07-29T09:27:21;18.10;99.90
12043;DHT22;6082;49.306;12.862;2022-07-29T09:30:04;18.10;99.90
12043;DHT22;6082;49.306;12.862;2022-07-29T09:32:32;18.10;99.90
12043;DHT22;6082;49.306;12.862;2022-07-29T09:35:17;18.10;99.90
12043;DHT22;6082;49.306;12.862;2022-07-29T09:37:44;18.00;99.90
12043;DHT22;6082;49.306;12.862;2022-07-29T09:40:18;18.00;99.90
12043;DHT22;6082;49.306;12.862;2022-07-29T09:42:45;17.90;99.90
12043;DHT22;6082;49.306;12.862;2022-07-29T09:45:12;17.90;99.90
12043;DHT22;6082;49.306;12.862;2022-07-29T09:47:44;17.80;99.90
12043;DHT22;6082;49.306;12.862;2022-07-29T09:50:11;17.80;99.90
12043;DHT22;6082;49.306;12.862;2022-07-29T09:52:53;17.90;99.90
12043;DHT22;6082;49.306;12.862;2022-07-29T09:55:22;18.00;99.90
12043;DHT22;6082;49.306;12.862;2022-07-29T09:57:49;17.90;99.90
12043;DHT22;6082;49.306;12.862;2022-07-29T10:00:17;17.90;99.90
12043;DHT22;6082;49.306;12.862;2022-07-29T10:02:44;17.90;99.90
12043;DHT22;6082;49.306;12.862;2022-07-29T10:05:26;17.90;99.90
12043;DHT22;6082;49.306;12.862;2022-07-29T10:07:55;18.00;99.90
12043;DHT22;6082;49.306;12.862;2022-07-29T10:10:21;18.20;99.90
12043;DHT22;6082;49.306;12.862;2022-07-29T10:12:59;18.30;99.90
12043;DHT22;6082;49.306;12.862;2022-07-29T10:15:28;18.50;99.90
12043;DHT22;6082;49.306;12.862;2022-07-29T10:17:55;18.70;99.90
12043;DHT22;6082;49.306;12.862;2022-07-29T10:20:22;19.10;99.90
12043;DHT22;6082;49.306;12.862;2022-07-29T10:22:49;19.10;99.90
12043;DHT22;6082;49.306;12.862;2022-07-29T10:25:17;19.10;99.90
12043;DHT22;6082;49.306;12.862;2022-07-29T10:27:45;19.20;99.90
12043;DHT22;6082;49.306;12.862;2022-07-29T10:30:12;19.30;99.90
12043;DHT22;6082;49.306;12.862;2022-07-29T10:44:33;19.70;99.90
12043;DHT22;6082;49.306;12.862;2022-07-29T10:46:59;19.70;99.90
12043;DHT22;6082;49.306;12.862;2022-07-29T10:49:26;19.90;99.90
12043;DHT22;6082;49.306;12.862;2022-07-29T10:52:08;20.00;99.90
12043;DHT22;6082;49.306;12.862;2022-07-29T10:59:49;20.30;99.90
12043;DHT22;6082;49.306;12.862;2022-07-29T11:05:10;20.70;99.90
12043;DHT22;6082;49.306;12.862;2022-07-29T11:07:37;20.80;99.90
12043;DHT22;6082;49.306;12.862;2022-07-29T11:15:12;21.20;99.90
12043;DHT22;6082;49.306;12.862;2022-07-29T11:20:35;21.50;99.90
12043;DHT22;6082;49.306;12.862;2022-07-29T11:23:01;21.60;99.90
12043;DHT22;6082;49.306;12.862;2022-07-29T11:25:42;21.70;99.90
12043;DHT22;6082;49.306;12.862;2022-07-29T11:28:16;21.80;99.90
12043;DHT22;6082;49.306;12.862;2022-07-29T11:30:51;22.00;99.90
12043;DHT22;6082;49.306;12.862;2022-07-29T11:33:31;22.10;99.90
12043;DHT22;6082;49.306;12.862;2022-07-29T11:36:15;22.10;99.90
12043;DHT22;6082;49.306;12.862;2022-07-29T11:38:41;22.20;99.90
12043;DHT22;6082;49.306;12.862;2022-07-29T11:41:23;22.30;99.90
12043;DHT22;6082;49.306;12.862;2022-07-29T11:43:58;22.40;99.90
12043;DHT22;6082;49.306;12.862;2022-07-29T11:49:09;22.60;99.90
12043;DHT22;6082;49.306;12.862;2022-07-29T11:51:39;22.90;99.90
12043;DHT22;6082;49.306;12.862;2022-07-29T11:54:08;23.00;99.90
12043;DHT22;6082;49.306;12.862;2022-07-29T11:56:39;23.10;99.90
12043;DHT22;6082;49.306;12.862;2022-07-29T11:59:09;23.20;99.90
12043;DHT22;6082;49.306;12.862;2022-07-29T12:01:35;23.30;99.90
12043;DHT22;6082;49.306;12.862;2022-07-29T12:04:05;23.40;99.90
12043;DHT22;6082;49.306;12.862;2022-07-29T12:06:35;23.50;99.90
12043;DHT22;6082;49.306;12.862;2022-07-29T12:09:07;23.70;99.90
12043;DHT22;6082;49.306;12.862;2022-07-29T12:11:33;23.70;99.90
12043;DHT22;6082;49.306;12.862;2022-07-29T12:13:58;23.80;99.90
12043;DHT22;6082;49.306;12.862;2022-07-29T12:16:37;24.00;99.90
12043;DHT22;6082;49.306;12.862;2022-07-29T12:19:04;24.20;99.90
12043;DHT22;6082;49.306;12.862;2022-07-29T12:21:46;24.40;99.90
12043;DHT22;6082;49.306;12.862;2022-07-29T12:24:13;24.40;99.90
12043;DHT22;6082;49.306;12.862;2022-07-29T12:27:09;24.50;99.90
12043;DHT22;6082;49.306;12.862;2022-07-29T12:29:34;24.60;99.90
12043;DHT22;6082;49.306;12.862;2022-07-29T12:32:00;24.70;99.90
12043;DHT22;6082;49.306;12.862;2022-07-29T12:34:27;24.90;99.90
12043;DHT22;6082;49.306;12.862;2022-07-29T12:36:54;24.80;99.90
12043;DHT22;6082;49.306;12.862;2022-07-29T12:39:20;24.90;99.90
12043;DHT22;6082;49.306;12.862;2022-07-29T12:41:46;25.10;99.90
12043;DHT22;6082;49.306;12.862;2022-07-29T12:44:12;25.30;99.90
12043;DHT22;6082;49.306;12.862;2022-07-29T12:46:38;25.40;99.90
12043;DHT22;6082;49.306;12.862;2022-07-29T12:49:04;25.50;99.90
12043;DHT22;6082;49.306;12.862;2022-07-29T12:51:36;25.40;99.90
12043;DHT22;6082;49.306;12.862;2022-07-29T12:54:11;25.40;99.90
12043;DHT22;6082;49.306;12.862;2022-07-29T12:56:39;25.40;99.90
12043;DHT22;6082;49.306;12.862;2022-07-29T12:59:21;25.50;99.90
12043;DHT22;6082;49.306;12.862;2022-07-29T13:01:49;25.50;99.90
12043;DHT22;6082;49.306;12.862;2022-07-29T13:04:30;25.60;99.90
12043;DHT22;6082;49.306;12.862;2022-07-29T13:07:23;25.80;99.90
12043;DHT22;6082;49.306;12.862;2022-07-29T13:09:49;25.70;99.90
12043;DHT22;6082;49.306;12.862;2022-07-29T13:12:14;25.70;99.90
12043;DHT22;6082;49.306;12.862;2022-07-29T13:14:42;25.70;99.90
12043;DHT22;6082;49.306;12.862;2022-07-29T13:22:16;25.70;99.90
12043;DHT22;6082;49.306;12.862;2022-07-29T13:27:13;25.80;99.90
12043;DHT22;6082;49.306;12.862;2022-07-29T13:29:38;25.90;99.90
12043;DHT22;6082;49.306;12.862;2022-07-29T13:32:05;25.90;99.90
12043;DHT22;6082;49.306;12.862;2022-07-29T13:34:31;25.90;99.90
12043;DHT22;6082;49.306;12.862;2022-07-29T13:36:57;26.00;99.90
12043;DHT22;6082;49.306;12.862;2022-07-29T13:39:23;26.00;99.90
12043;DHT22;6082;49.306;12.862;2022-07-29T13:41:48;26.00;99.90
12043;DHT22;6082;49.306;12.862;2022-07-29T13:44:14;26.00;99.90
12043;DHT22;6082;49.306;12.862;2022-07-29T13:46:40;26.00;99.90
12043;DHT22;6082;49.306;12.862;2022-07-29T13:49:06;26.00;99.90
12043;DHT22;6082;49.306;12.862;2022-07-29T13:51:32;26.10;99.90
12043;DHT22;6082;49.306;12.862;2022-07-29T13:53:57;26.20;99.90
12043;DHT22;6082;49.306;12.862;2022-07-29T13:56:23;26.10;99.90
12043;DHT22;6082;49.306;12.862;2022-07-29T13:58:49;26.20;99.90
12043;DHT22;6082;49.306;12.862;2022-07-29T14:01:15;26.10;99.90
12043;DHT22;6082;49.306;12.862;2022-07-29T14:03:40;26.10;99.90
12043;DHT22;6082;49.306;12.862;2022-07-29T14:06:08;26.10;99.90
12043;DHT22;6082;49.306;12.862;2022-07-29T14:08:34;26.10;99.90
12043;DHT22;6082;49.306;12.862;2022-07-29T14:11:00;26.10;99.90
12043;DHT22;6082;49.306;12.862;2022-07-29T14:13:25;26.10;99.90
12043;DHT22;6082;49.306;12.862;2022-07-29T14:15:52;26.10;99.90
12043;DHT22;6082;49.306;12.862;2022-07-29T14:18:17;26.10;99.90
12043;DHT22;6082;49.306;12.862;2022-07-29T14:20:43;26.10;99.90
12043;DHT22;6082;49.306;12.862;2022-07-29T14:23:09;26.10;99.90
12043;DHT22;6082;49.306;12.862;2022-07-29T14:25:35;26.10;99.90
12043;DHT22;6082;49.306;12.862;2022-07-29T14:28:01;26.10;99.90
12043;DHT22;6082;49.306;12.862;2022-07-29T14:30:26;26.10;99.90
12043;DHT22;6082;49.306;12.862;2022-07-29T14:32:52;26.00;99.90
12043;DHT22;6082;49.306;12.862;2022-07-29T14:35:18;26.10;99.90
12043;DHT22;6082;49.306;12.862;2022-07-29T14:37:44;26.00;99.90
12043;DHT22;6082;49.306;12.862;2022-07-29T14:40:10;26.00;99.90
12043;DHT22;6082;49.306;12.862;2022-07-29T14:42:36;26.00;99.90
12043;DHT22;6082;49.306;12.862;2022-07-29T14:45:04;26.10;99.90
12043;DHT22;6082;49.306;12.862;2022-07-29T14:47:31;26.00;99.90
12043;DHT22;6082;49.306;12.862;2022-07-29T14:49:56;26.10;99.90
12043;DHT22;6082;49.306;12.862;2022-07-29T14:52:22;26.20;99.90
12043;DHT22;6082;49.306;12.862;2022-07-29T14:54:48;26.20;99.90
12043;DHT22;6082;49.306;12.862;2022-07-29T14:57:13;26.20;99.90
12043;DHT22;6082;49.306;12.862;2022-07-29T14:59:39;26.20;99.90
12043;DHT22;6082;49.306;12.862;2022-07-29T15:02:05;26.20;99.90
12043;DHT22;6082;49.306;12.862;2022-07-29T15:04:31;26.30;99.90
12043;DHT22;6082;49.306;12.862;2022-07-29T15:06:56;26.20;99.90
12043;DHT22;6082;49.306;12.862;2022-07-29T15:09:23;26.30;99.90
12043;DHT22;6082;49.306;12.862;2022-07-29T15:11:49;26.30;99.90
12043;DHT22;6082;49.306;12.862;2022-07-29T15:14:15;26.30;99.90
12043;DHT22;6082;49.306;12.862;2022-07-29T15:16:40;26.30;99.90
12043;DHT22;6082;49.306;12.862;2022-07-29T15:19:08;26.20;99.90
12043;DHT22;6082;49.306;12.862;2022-07-29T15:21:34;26.20;99.90
12043;DHT22;6082;49.306;12.862;2022-07-29T15:23:59;26.30;99.90
12043;DHT22;6082;49.306;12.862;2022-07-29T15:26:25;26.30;99.90
12043;DHT22;6082;49.306;12.862;2022-07-29T15:28:51;26.30;99.90
12043;DHT22;6082;49.306;12.862;2022-07-29T15:31:17;26.30;99.90
12043;DHT22;6082;49.306;12.862;2022-07-29T15:33:44;26.20;99.90
12043;DHT22;6082;49.306;12.862;2022-07-29T15:36:10;26.20;99.90
12043;DHT22;6082;49.306;12.862;2022-07-29T15:38:38;26.20;99.90
12043;DHT22;6082;49.306;12.862;2022-07-29T15:41:08;26.20;99.90
12043;DHT22;6082;49.306;12.862;2022-07-29T15:43:34;26.20;99.90
12043;DHT22;6082;49.306;12.862;2022-07-29T15:46:01;26.20;99.90
12043;DHT22;6082;49.306;12.862;2022-07-29T15:48:45;26.20;99.90
12043;DHT22;6082;49.306;12.862;2022-07-29T15:51:10;26.20;99.90
12043;DHT22;6082;49.306;12.862;2022-07-29T15:53:36;26.10;99.90
12043;DHT22;6082;49.306;12.862;2022-07-29T15:56:02;26.20;99.90
12043;DHT22;6082;49.306;12.862;2022-07-29T15:58:29;26.20;99.90
12043;DHT22;6082;49.306;12.862;2022-07-29T16:00:54;26.10;99.90
12043;DHT22;6082;49.306;12.862;2022-07-29T16:03:20;26.10;99.90
12043;DHT22;6082;49.306;12.862;2022-07-29T16:05:47;26.10;99.90
12043;DHT22;6082;49.306;12.862;2022-07-29T16:08:13;26.00;99.90
12043;DHT22;6082;49.306;12.862;2022-07-29T16:10:39;26.00;99.90
12043;DHT22;6082;49.306;12.862;2022-07-29T16:13:05;26.00;99.90
12043;DHT22;6082;49.306;12.862;2022-07-29T16:15:31;26.00;99.90
12043;DHT22;6082;49.306;12.862;2022-07-29T16:17:57;25.90;99.90
12043;DHT22;6082;49.306;12.862;2022-07-29T16:20:23;25.80;99.90
12043;DHT22;6082;49.306;12.862;2022-07-29T16:22:49;25.80;99.90
12043;DHT22;6082;49.306;12.862;2022-07-29T16:25:15;25.70;99.90
12043;DHT22;6082;49.306;12.862;2022-07-29T16:27:41;25.60;99.90
12043;DHT22;6082;49.306;12.862;2022-07-29T16:30:07;25.50;99.90
12043;DHT22;6082;49.306;12.862;2022-07-29T16:32:35;25.40;99.90
12043;DHT22;6082;49.306;12.862;2022-07-29T16:35:01;25.30;99.90
12043;DHT22;6082;49.306;12.862;2022-07-29T16:37:54;25.30;99.90
12043;DHT22;6082;49.306;12.862;2022-07-29T16:40:20;25.30;99.90
12043;DHT22;6082;49.306;12.862;2022-07-29T16:42:46;25.40;99.90
12043;DHT22;6082;49.306;12.862;2022-07-29T16:45:11;25.30;99.90
12043;DHT22;6082;49.306;12.862;2022-07-29T16:47:37;25.30;99.90
12043;DHT22;6082;49.306;12.862;2022-07-29T16:50:03;25.40;99.90
12043;DHT22;6082;49.306;12.862;2022-07-29T16:52:29;25.30;99.90
12043;DHT22;6082;49.306;12.862;2022-07-29T16:54:55;25.20;99.90
12043;DHT22;6082;49.306;12.862;2022-07-29T16:57:20;25.10;99.90
12043;DHT22;6082;49.306;12.862;2022-07-29T16:59:46;25.00;99.90
12043;DHT22;6082;49.306;12.862;2022-07-29T17:02:14;24.90;99.90
12043;DHT22;6082;49.306;12.862;2022-07-29T17:04:40;24.80;99.90
12043;DHT22;6082;49.306;12.862;2022-07-29T17:07:05;24.70;99.90
12043;DHT22;6082;49.306;12.862;2022-07-29T17:09:31;24.60;99.90
12043;DHT22;6082;49.306;12.862;2022-07-29T17:11:57;24.70;99.90
12043;DHT22;6082;49.306;12.862;2022-07-29T17:14:28;24.70;99.90
12043;DHT22;6082;49.306;12.862;2022-07-29T17:16:56;24.50;99.90
12043;DHT22;6082;49.306;12.862;2022-07-29T17:19:22;24.50;99.90
12043;DHT22;6082;49.306;12.862;2022-07-29T17:21:48;24.30;99.90
12043;DHT22;6082;49.306;12.862;2022-07-29T17:24:14;24.20;99.90
12043;DHT22;6082;49.306;12.862;2022-07-29T17:26:40;24.10;99.90
12043;DHT22;6082;49.306;12.862;2022-07-29T17:29:08;24.00;99.90
12043;DHT22;6082;49.306;12.862;2022-07-29T17:31:33;23.90;99.90
12043;DHT22;6082;49.306;12.862;2022-07-29T17:33:59;23.60;99.90
12043;DHT22;6082;49.306;12.862;2022-07-29T17:36:27;23.20;99.90
12043;DHT22;6082;49.306;12.862;2022-07-29T17:39:01;23.10;99.90
12043;DHT22;6082;49.306;12.862;2022-07-29T17:41:28;22.90;99.90
12043;DHT22;6082;49.306;12.862;2022-07-29T17:43:54;22.60;99.90
12043;DHT22;6082;49.306;12.862;2022-07-29T17:46:21;22.20;99.90
12043;DHT22;6082;49.306;12.862;2022-07-29T17:48:47;22.00;99.90
12043;DHT22;6082;49.306;12.862;2022-07-29T17:51:13;21.80;99.90
12043;DHT22;6082;49.306;12.862;2022-07-29T17:53:39;21.60;99.90
12043;DHT22;6082;49.306;12.862;2022-07-29T17:56:06;21.40;99.90
12043;DHT22;6082;49.306;12.862;2022-07-29T17:58:32;21.30;99.90
12043;DHT22;6082;49.306;12.862;2022-07-29T18:00:58;21.10;99.90
12043;DHT22;6082;49.306;12.862;2022-07-29T18:03:24;21.00;99.90
12043;DHT22;6082;49.306;12.862;2022-07-29T18:05:51;20.90;99.90
12043;DHT22;6082;49.306;12.862;2022-07-29T18:08:17;20.80;99.90
12043;DHT22;6082;49.306;12.862;2022-07-29T18:10:43;20.80;99.90
12043;DHT22;6082;49.306;12.862;2022-07-29T18:13:09;20.80;99.90
12043;DHT22;6082;49.306;12.862;2022-07-29T18:15:38;20.80;99.90
12043;DHT22;6082;49.306;12.862;2022-07-29T18:18:04;20.70;99.90
12043;DHT22;6082;49.306;12.862;2022-07-29T18:20:30;20.60;99.90
12043;DHT22;6082;49.306;12.862;2022-07-29T18:22:56;20.60;99.90
12043;DHT22;6082;49.306;12.862;2022-07-29T18:25:22;20.60;99.90
12043;DHT22;6082;49.306;12.862;2022-07-29T18:27:49;20.50;99.90
12043;DHT22;6082;49.306;12.862;2022-07-29T18:30:15;20.40;99.90
12043;DHT22;6082;49.306;12.862;2022-07-29T18:32:41;20.30;99.90
12043;DHT22;6082;49.306;12.862;2022-07-29T18:35:07;20.30;99.90
12043;DHT22;6082;49.306;12.862;2022-07-29T18:37:33;20.40;99.90
12043;DHT22;6082;49.306;12.862;2022-07-29T18:40:00;20.50;99.90
12043;DHT22;6082;49.306;12.862;2022-07-29T18:42:26;20.70;99.90
12043;DHT22;6082;49.306;12.862;2022-07-29T18:44:52;20.80;99.90
12043;DHT22;6082;49.306;12.862;2022-07-29T18:47:17;20.90;99.90
12043;DHT22;6082;49.306;12.862;2022-07-29T18:49:43;21.00;99.90
12043;DHT22;6082;49.306;12.862;2022-07-29T18:52:12;21.10;99.90
12043;DHT22;6082;49.306;12.862;2022-07-29T18:54:37;21.00;99.90
12043;DHT22;6082;49.306;12.862;2022-07-29T18:57:03;20.90;99.90
12043;DHT22;6082;49.306;12.862;2022-07-29T18:59:29;20.90;99.90
12043;DHT22;6082;49.306;12.862;2022-07-29T19:01:55;20.80;99.90
12043;DHT22;6082;49.306;12.862;2022-07-29T19:04:21;20.70;99.90
12043;DHT22;6082;49.306;12.862;2022-07-29T19:06:47;20.70;99.90
12043;DHT22;6082;49.306;12.862;2022-07-29T19:09:12;20.70;99.90
12043;DHT22;6082;49.306;12.862;2022-07-29T19:11:39;20.70;99.90
12043;DHT22;6082;49.306;12.862;2022-07-29T19:14:08;20.70;99.90
12043;DHT22;6082;49.306;12.862;2022-07-29T19:16:34;20.70;99.90
12043;DHT22;6082;49.306;12.862;2022-07-29T19:19:00;20.70;99.90
12043;DHT22;6082;49.306;12.862;2022-07-29T19:21:26;20.70;99.90
12043;DHT22;6082;49.306;12.862;2022-07-29T19:23:52;20.70;99.90
12043;DHT22;6082;49.306;12.862;2022-07-29T19:26:17;20.70;99.90
12043;DHT22;6082;49.306;12.862;2022-07-29T19:28:47;20.70;99.90
12043;DHT22;6082;49.306;12.862;2022-07-29T19:31:13;20.80;99.90
12043;DHT22;6082;49.306;12.862;2022-07-29T19:33:39;20.80;99.90
12043;DHT22;6082;49.306;12.862;2022-07-29T19:36:05;20.70;99.90
12043;DHT22;6082;49.306;12.862;2022-07-29T19:38:31;20.60;99.90
12043;DHT22;6082;49.306;12.862;2022-07-29T19:40:57;20.40;99.90
12043;DHT22;6082;49.306;12.862;2022-07-29T19:43:22;20.30;99.90
12043;DHT22;6082;49.306;12.862;2022-07-29T19:45:49;20.30;99.90
12043;DHT22;6082;49.306;12.862;2022-07-29T19:48:14;20.40;99.90
12043;DHT22;6082;49.306;12.862;2022-07-29T19:50:40;20.40;99.90
12043;DHT22;6082;49.306;12.862;2022-07-29T19:53:07;20.40;99.90
12043;DHT22;6082;49.306;12.862;2022-07-29T19:55:33;20.50;99.90
12043;DHT22;6082;49.306;12.862;2022-07-29T19:57:59;20.60;99.90
12043;DHT22;6082;49.306;12.862;2022-07-29T20:00:27;20.50;99.90
12043;DHT22;6082;49.306;12.862;2022-07-29T20:02:53;20.60;99.90
12043;DHT22;6082;49.306;12.862;2022-07-29T20:05:20;20.50;99.90
12043;DHT22;6082;49.306;12.862;2022-07-29T20:07:46;20.30;99.90
12043;DHT22;6082;49.306;12.862;2022-07-29T20:10:12;20.20;99.90
12043;DHT22;6082;49.306;12.862;2022-07-29T20:12:38;20.20;99.90
12043;DHT22;6082;49.306;12.862;2022-07-29T20:15:10;20.20;99.90
12043;DHT22;6082;49.306;12.862;2022-07-29T20:17:37;20.20;99.90
12043;DHT22;6082;49.306;12.862;2022-07-29T20:20:04;20.10;99.90
12043;DHT22;6082;49.306;12.862;2022-07-29T20:22:30;19.90;99.90
12043;DHT22;6082;49.306;12.862;2022-07-29T20:24:56;19.70;99.90
12043;DHT22;6082;49.306;12.862;2022-07-29T20:27:22;19.50;99.90
12043;DHT22;6082;49.306;12.862;2022-07-29T20:29:48;19.40;99.90
12043;DHT22;6082;49.306;12.862;2022-07-29T20:32:14;19.30;99.90
12043;DHT22;6082;49.306;12.862;2022-07-29T20:34:40;19.30;99.90
12043;DHT22;6082;49.306;12.862;2022-07-29T20:37:06;19.20;99.90
12043;DHT22;6082;49.306;12.862;2022-07-29T20:39:36;19.20;99.90
12043;DHT22;6082;49.306;12.862;2022-07-29T20:42:02;19.30;99.90
12043;DHT22;6082;49.306;12.862;2022-07-29T20:44:27;19.30;99.90
12043;DHT22;6082;49.306;12.862;2022-07-29T20:46:53;19.30;99.90
12043;DHT22;6082;49.306;12.862;2022-07-29T20:49:19;19.20;99.90
12043;DHT22;6082;49.306;12.862;2022-07-29T20:51:44;19.30;99.90
12043;DHT22;6082;49.306;12.862;2022-07-29T20:54:11;19.30;99.90
12043;DHT22;6082;49.306;12.862;2022-07-29T20:56:37;19.40;99.90
12043;DHT22;6082;49.306;12.862;2022-07-29T20:59:03;19.40;99.90
12043;DHT22;6082;49.306;12.862;2022-07-29T21:01:29;19.50;99.90
12043;DHT22;6082;49.306;12.862;2022-07-29T21:03:58;19.50;99.90
12043;DHT22;6082;49.306;12.862;2022-07-29T21:06:24;19.60;99.90
12043;DHT22;6082;49.306;12.862;2022-07-29T21:08:50;19.50;99.90
12043;DHT22;6082;49.306;12.862;2022-07-29T21:11:16;19.50;99.90
12043;DHT22;6082;49.306;12.862;2022-07-29T21:13:42;19.50;99.90
12043;DHT22;6082;49.306;12.862;2022-07-29T21:16:10;19.40;99.90
12043;DHT22;6082;49.306;12.862;2022-07-29T21:18:39;19.40;99.90
12043;DHT22;6082;49.306;12.862;2022-07-29T21:21:08;19.40;99.90
12043;DHT22;6082;49.306;12.862;2022-07-29T21:23:34;19.40;99.90
12043;DHT22;6082;49.306;12.862;2022-07-29T21:26:00;19.40;99.90
12043;DHT22;6082;49.306;12.862;2022-07-29T21:28:26;19.30;99.90
12043;DHT22;6082;49.306;12.862;2022-07-29T21:30:59;19.30;99.90
12043;DHT22;6082;49.306;12.862;2022-07-29T21:33:30;19.30;99.90
12043;DHT22;6082;49.306;12.862;2022-07-29T21:35:56;19.30;99.90
12043;DHT22;6082;49.306;12.862;2022-07-29T21:38:22;19.30;99.90
12043;DHT22;6082;49.306;12.862;2022-07-29T21:40:50;19.30;99.90
12043;DHT22;6082;49.306;12.862;2022-07-29T21:43:17;19.20;99.90
12043;DHT22;6082;49.306;12.862;2022-07-29T21:45:43;19.20;99.90
12043;DHT22;6082;49.306;12.862;2022-07-29T21:48:12;19.20;99.90
12043;DHT22;6082;49.306;12.862;2022-07-29T21:50:38;19.20;99.90
12043;DHT22;6082;49.306;12.862;2022-07-29T21:53:04;19.20;99.90
12043;DHT22;6082;49.306;12.862;2022-07-29T21:55:30;19.30;99.90
12043;DHT22;6082;49.306;12.862;2022-07-29T21:57:56;19.40;99.90
12043;DHT22;6082;49.306;12.862;2022-07-29T22:00:22;19.40;99.90
12043;DHT22;6082;49.306;12.862;2022-07-29T22:02:51;19.40;99.90
12043;DHT22;6082;49.306;12.862;2022-07-29T22:05:16;19.40;99.90
12043;DHT22;6082;49.306;12.862;2022-07-29T22:07:43;19.40;99.90
12043;DHT22;6082;49.306;12.862;2022-07-29T22:10:10;19.50;99.90
12043;DHT22;6082;49.306;12.862;2022-07-29T22:12:36;19.50;99.90
12043;DHT22;6082;49.306;12.862;2022-07-29T22:15:02;19.50;99.90
12043;DHT22;6082;49.306;12.862;2022-07-29T22:17:28;19.60;99.90
12043;DHT22;6082;49.306;12.862;2022-07-29T22:19:54;19.60;99.90
12043;DHT22;6082;49.306;12.862;2022-07-29T22:22:20;19.60;99.90
12043;DHT22;6082;49.306;12.862;2022-07-29T22:24:46;19.60;99.90
12043;DHT22;6082;49.306;12.862;2022-07-29T22:27:12;19.60;99.90
12043;DHT22;6082;49.306;12.862;2022-07-29T22:29:38;19.60;99.90
12043;DHT22;6082;49.306;12.862;2022-07-29T22:32:04;19.60;99.90
12043;DHT22;6082;49.306;12.862;2022-07-29T22:34:30;19.50;99.90
12043;DHT22;6082;49.306;12.862;2022-07-29T22:36:57;19.50;99.90
12043;DHT22;6082;49.306;12.862;2022-07-29T22:39:23;19.60;99.90
12043;DHT22;6082;49.306;12.862;2022-07-29T22:41:50;19.60;99.90
12043;DHT22;6082;49.306;12.862;2022-07-29T22:44:16;19.60;99.90
12043;DHT22;6082;49.306;12.862;2022-07-29T22:46:42;19.60;99.90
12043;DHT22;6082;49.306;12.862;2022-07-29T22:49:08;19.60;99.90
12043;DHT22;6082;49.306;12.862;2022-07-29T22:51:34;19.70;99.90
12043;DHT22;6082;49.306;12.862;2022-07-29T22:54:00;19.60;99.90
12043;DHT22;6082;49.306;12.862;2022-07-29T22:56:26;19.60;99.90
12043;DHT22;6082;49.306;12.862;2022-07-29T22:58:52;19.60;99.90
12043;DHT22;6082;49.306;12.862;2022-07-29T23:01:20;19.60;99.90
12043;DHT22;6082;49.306;12.862;2022-07-29T23:03:46;19.60;99.90
12043;DHT22;6082;49.306;12.862;2022-07-29T23:06:12;19.60;99.90
12043;DHT22;6082;49.306;12.862;2022-07-29T23:08:38;19.60;99.90
12043;DHT22;6082;49.306;12.862;2022-07-29T23:11:04;19.50;99.90
12043;DHT22;6082;49.306;12.862;2022-07-29T23:13:30;19.50;99.90
12043;DHT22;6082;49.306;12.862;2022-07-29T23:15:56;19.50;99.90
12043;DHT22;6082;49.306;12.862;2022-07-29T23:18:22;19.40;99.90
12043;DHT22;6082;49.306;12.862;2022-07-29T23:20:48;19.40;99.90
12043;DHT22;6082;49.306;12.862;2022-07-29T23:23:13;19.40;99.90
12043;DHT22;6082;49.306;12.862;2022-07-29T23:25:39;19.40;99.90
12043;DHT22;6082;49.306;12.862;2022-07-29T23:28:05;19.40;99.90
12043;DHT22;6082;49.306;12.862;2022-07-29T23:30:31;19.40;99.90
12043;DHT22;6082;49.306;12.862;2022-07-29T23:32:56;19.40;99.90
12043;DHT22;6082;49.306;12.862;2022-07-29T23:35:22;19.40;99.90
12043;DHT22;6082;49.306;12.862;2022-07-29T23:37:48;19.40;99.90
12043;DHT22;6082;49.306;12.862;2022-07-29T23:40:14;19.40;99.90
12043;DHT22;6082;49.306;12.862;2022-07-29T23:42:40;19.40;99.90
12043;DHT22;6082;49.306;12.862;2022-07-29T23:45:07;19.40;99.90
12043;DHT22;6082;49.306;12.862;2022-07-29T23:47:33;19.40;99.90
12043;DHT22;6082;49.306;12.862;2022-07-29T23:49:59;19.30;99.90
12043;DHT22;6082;49.306;12.862;2022-07-29T23:52:25;19.30;99.90
12043;DHT22;6082;49.306;12.862;2022-07-29T23:54:51;19.30;99.90
12043;DHT22;6082;49.306;12.862;2022-07-29T23:57:16;19.30;99.90
12043;DHT22;6082;49.306;12.862;2022-07-29T23:59:42;19.30;99.90
